sensor_id;sensor_type;location;lat;lon;timestamp;temperature;humidity
40077;DHT22;25777;47.824;18.982;2022-11-04T00:01:33;10.60;99.90
40077;DHT22;25777;47.824;18.982;2022-11-04T00:03:59;10.60;99.90
40077;DHT22;25777;47.824;18.982;2022-11-04T00:06:25;10.50;99.90
40077;DHT22;25777;47.824;18.982;2022-11-04T00:08:53;10.50;99.90
40077;DHT22;25777;47.824;18.982;2022-11-04T00:11:19;10.50;99.90
40077;DHT22;25777;47.824;18.982;2022-11-04T00:14:07;10.50;99.90
40077;DHT22;25777;47.824;18.982;2022-11-04T00:16:33;10.50;99.90
40077;DHT22;25777;47.824;18.982;2022-11-04T00:19:18;10.60;99.90
40077;DHT22;25777;47.824;18.982;2022-11-04T00:21:44;10.60;99.90
40077;DHT22;25777;47.824;18.982;2022-11-04T00:24:29;10.60;99.90
40077;DHT22;25777;47.824;18.982;2022-11-04T00:27:11;10.60;99.90
40077;DHT22;25777;47.824;18.982;2022-11-04T00:30:12;10.60;99.90
40077;DHT22;25777;47.824;18.982;2022-11-04T00:32:38;10.60;99.90
40077;DHT22;25777;47.824;18.982;2022-11-04T00:35:23;10.60;99.90
40077;DHT22;25777;47.824;18.982;2022-11-04T00:37:48;10.70;99.90
40077;DHT22;25777;47.824;18.982;2022-11-04T00:40:15;10.70;99.90
40077;DHT22;25777;47.824;18.982;2022-11-04T00:42:44;10.70;99.90
40077;DHT22;25777;47.824;18.982;2022-11-04T00:45:11;10.70;99.90
40077;DHT22;25777;47.824;18.982;2022-11-04T00:47:37;10.70;99.90
40077;DHT22;25777;47.824;18.982;2022-11-04T00:50:03;10.70;99.90
40077;DHT22;25777;47.824;18.982;2022-11-04T00:52:29;10.70;99.90
40077;DHT22;25777;47.824;18.982;2022-11-04T00:54:55;10.70;99.90
40077;DHT22;25777;47.824;18.982;2022-11-04T00:57:22;10.70;99.90
40077;DHT22;25777;47.824;18.982;2022-11-04T00:59:48;10.70;99.90
40077;DHT22;25777;47.824;18.982;2022-11-04T01:02:14;10.70;99.90
40077;DHT22;25777;47.824;18.982;2022-11-04T01:04:40;10.80;99.90
40077;DHT22;25777;47.824;18.982;2022-11-04T01:07:06;10.80;99.90
40077;DHT22;25777;47.824;18.982;2022-11-04T01:09:32;10.80;99.90
40077;DHT22;25777;47.824;18.982;2022-11-04T01:11:58;10.80;99.90
40077;DHT22;25777;47.824;18.982;2022-11-04T01:14:24;10.80;99.90
40077;DHT22;25777;47.824;18.982;2022-11-04T01:16:49;10.80;99.90
40077;DHT22;25777;47.824;18.982;2022-11-04T01:19:16;10.80;99.90
40077;DHT22;25777;47.824;18.982;2022-11-04T01:21:42;10.80;99.90
40077;DHT22;25777;47.824;18.982;2022-11-04T01:24:08;10.80;99.90
40077;DHT22;25777;47.824;18.982;2022-11-04T01:26:35;10.80;99.90
40077;DHT22;25777;47.824;18.982;2022-11-04T01:29:00;10.80;99.90
40077;DHT22;25777;47.824;18.982;2022-11-04T01:31:29;10.80;99.90
40077;DHT22;25777;47.824;18.982;2022-11-04T01:33:57;10.90;99.90
40077;DHT22;25777;47.824;18.982;2022-11-04T01:36:24;10.90;99.90
40077;DHT22;25777;47.824;18.982;2022-11-04T01:38:52;10.80;99.90
40077;DHT22;25777;47.824;18.982;2022-11-04T01:41:21;10.80;99.90
40077;DHT22;25777;47.824;18.982;2022-11-04T01:43:54;10.80;99.90
40077;DHT22;25777;47.824;18.982;2022-11-04T01:46:41;10.80;99.90
40077;DHT22;25777;47.824;18.982;2022-11-04T01:49:38;10.80;99.90
40077;DHT22;25777;47.824;18.982;2022-11-04T01:52:10;10.80;99.90
40077;DHT22;25777;47.824;18.982;2022-11-04T01:54:38;10.80;99.90
40077;DHT22;25777;47.824;18.982;2022-11-04T01:57:06;10.80;99.90
40077;DHT22;25777;47.824;18.982;2022-11-04T01:59:36;10.80;99.90
40077;DHT22;25777;47.824;18.982;2022-11-04T02:02:04;10.80;99.90
40077;DHT22;25777;47.824;18.982;2022-11-04T02:04:30;10.80;99.90
40077;DHT22;25777;47.824;18.982;2022-11-04T02:07:02;10.80;99.90
40077;DHT22;25777;47.824;18.982;2022-11-04T02:09:31;10.80;99.90
40077;DHT22;25777;47.824;18.982;2022-11-04T02:11:59;10.80;99.90
40077;DHT22;25777;47.824;18.982;2022-11-04T02:14:46;10.80;99.90
40077;DHT22;25777;47.824;18.982;2022-11-04T02:20:28;10.80;99.90
40077;DHT22;25777;47.824;18.982;2022-11-04T02:31:39;10.90;99.90
40077;DHT22;25777;47.824;18.982;2022-11-04T02:34:39;10.80;99.90
40077;DHT22;25777;47.824;18.982;2022-11-04T02:40:10;10.80;99.90
40077;DHT22;25777;47.824;18.982;2022-11-04T02:45:33;10.80;99.90
40077;DHT22;25777;47.824;18.982;2022-11-04T02:53:13;10.80;99.90
40077;DHT22;25777;47.824;18.982;2022-11-04T02:55:47;10.70;99.90
40077;DHT22;25777;47.824;18.982;2022-11-04T02:58:20;10.70;99.90
40077;DHT22;25777;47.824;18.982;2022-11-04T03:00:47;10.70;99.90
40077;DHT22;25777;47.824;18.982;2022-11-04T03:03:20;10.70;99.90
40077;DHT22;25777;47.824;18.982;2022-11-04T03:05:49;10.70;99.90
40077;DHT22;25777;47.824;18.982;2022-11-04T03:08:26;10.60;99.90
40077;DHT22;25777;47.824;18.982;2022-11-04T03:10:58;10.60;99.90
40077;DHT22;25777;47.824;18.982;2022-11-04T03:13:39;10.60;99.90
40077;DHT22;25777;47.824;18.982;2022-11-04T03:16:15;10.50;99.90
40077;DHT22;25777;47.824;18.982;2022-11-04T03:21:27;10.50;99.90
40077;DHT22;25777;47.824;18.982;2022-11-04T03:23:54;10.50;99.90
40077;DHT22;25777;47.824;18.982;2022-11-04T03:26:36;10.50;99.90
40077;DHT22;25777;47.824;18.982;2022-11-04T03:34:14;10.40;99.90
40077;DHT22;25777;47.824;18.982;2022-11-04T03:36:40;10.40;99.90
40077;DHT22;25777;47.824;18.982;2022-11-04T03:39:06;10.30;99.90
40077;DHT22;25777;47.824;18.982;2022-11-04T03:41:41;10.40;99.90
40077;DHT22;25777;47.824;18.982;2022-11-04T03:44:08;10.40;99.90
40077;DHT22;25777;47.824;18.982;2022-11-04T03:46:34;10.30;99.90
40077;DHT22;25777;47.824;18.982;2022-11-04T03:49:01;10.30;99.90
40077;DHT22;25777;47.824;18.982;2022-11-04T03:51:27;10.20;99.90
40077;DHT22;25777;47.824;18.982;2022-11-04T03:53:54;10.20;99.90
40077;DHT22;25777;47.824;18.982;2022-11-04T04:02:26;10.10;99.90
40077;DHT22;25777;47.824;18.982;2022-11-04T04:04:59;10.10;99.90
40077;DHT22;25777;47.824;18.982;2022-11-04T04:07:43;10.10;99.90
40077;DHT22;25777;47.824;18.982;2022-11-04T04:12:58;10.10;99.90
40077;DHT22;25777;47.824;18.982;2022-11-04T04:15:40;10.00;99.90
40077;DHT22;25777;47.824;18.982;2022-11-04T04:18:12;10.00;99.90
40077;DHT22;25777;47.824;18.982;2022-11-04T04:20:41;10.00;99.90
40077;DHT22;25777;47.824;18.982;2022-11-04T04:23:18;10.00;99.90
40077;DHT22;25777;47.824;18.982;2022-11-04T04:26:07;10.00;99.90
40077;DHT22;25777;47.824;18.982;2022-11-04T04:28:54;10.00;99.90
40077;DHT22;25777;47.824;18.982;2022-11-04T04:31:22;9.90;99.90
40077;DHT22;25777;47.824;18.982;2022-11-04T04:34:08;9.90;99.90
40077;DHT22;25777;47.824;18.982;2022-11-04T04:36:51;9.90;99.90
40077;DHT22;25777;47.824;18.982;2022-11-04T04:39:21;9.90;99.90
40077;DHT22;25777;47.824;18.982;2022-11-04T04:42:06;9.90;99.90
40077;DHT22;25777;47.824;18.982;2022-11-04T04:44:51;9.90;99.90
40077;DHT22;25777;47.824;18.982;2022-11-04T04:47:44;9.90;99.90
40077;DHT22;25777;47.824;18.982;2022-11-04T04:50:20;9.90;99.90
40077;DHT22;25777;47.824;18.982;2022-11-04T04:52:52;9.90;99.90
40077;DHT22;25777;47.824;18.982;2022-11-04T04:55:18;9.80;99.90
40077;DHT22;25777;47.824;18.982;2022-11-04T04:57:44;9.80;99.90
40077;DHT22;25777;47.824;18.982;2022-11-04T05:00:16;9.80;99.90
40077;DHT22;25777;47.824;18.982;2022-11-04T05:02:43;9.70;99.90
40077;DHT22;25777;47.824;18.982;2022-11-04T05:05:10;9.70;99.90
40077;DHT22;25777;47.824;18.982;2022-11-04T05:07:36;9.70;99.90
40077;DHT22;25777;47.824;18.982;2022-11-04T05:10:02;9.70;99.90
40077;DHT22;25777;47.824;18.982;2022-11-04T05:12:28;9.70;99.90
40077;DHT22;25777;47.824;18.982;2022-11-04T05:15:13;9.70;99.90
40077;DHT22;25777;47.824;18.982;2022-11-04T05:17:39;9.70;99.90
40077;DHT22;25777;47.824;18.982;2022-11-04T05:20:05;9.70;99.90
40077;DHT22;25777;47.824;18.982;2022-11-04T05:22:31;9.70;99.90
40077;DHT22;25777;47.824;18.982;2022-11-04T05:24:57;9.70;99.90
40077;DHT22;25777;47.824;18.982;2022-11-04T05:27:23;9.70;99.90
40077;DHT22;25777;47.824;18.982;2022-11-04T05:29:49;9.70;99.90
40077;DHT22;25777;47.824;18.982;2022-11-04T05:32:15;9.60;99.90
40077;DHT22;25777;47.824;18.982;2022-11-04T05:34:41;9.60;99.90
40077;DHT22;25777;47.824;18.982;2022-11-04T05:37:07;9.60;99.90
40077;DHT22;25777;47.824;18.982;2022-11-04T05:39:33;9.60;99.90
40077;DHT22;25777;47.824;18.982;2022-11-04T05:41:59;9.60;99.90
40077;DHT22;25777;47.824;18.982;2022-11-04T05:44:25;9.60;99.90
40077;DHT22;25777;47.824;18.982;2022-11-04T05:46:51;9.60;99.90
40077;DHT22;25777;47.824;18.982;2022-11-04T05:49:17;9.50;99.90
40077;DHT22;25777;47.824;18.982;2022-11-04T05:51:43;9.50;99.90
40077;DHT22;25777;47.824;18.982;2022-11-04T05:54:09;9.50;99.90
40077;DHT22;25777;47.824;18.982;2022-11-04T05:56:35;9.50;99.90
40077;DHT22;25777;47.824;18.982;2022-11-04T05:59:01;9.50;99.90
40077;DHT22;25777;47.824;18.982;2022-11-04T06:03:56;9.50;99.90
40077;DHT22;25777;47.824;18.982;2022-11-04T06:06:23;9.50;99.90
40077;DHT22;25777;47.824;18.982;2022-11-04T06:08:50;9.50;99.90
40077;DHT22;25777;47.824;18.982;2022-11-04T06:11:17;9.50;99.90
40077;DHT22;25777;47.824;18.982;2022-11-04T06:13:43;9.50;99.90
40077;DHT22;25777;47.824;18.982;2022-11-04T06:16:09;9.50;99.90
40077;DHT22;25777;47.824;18.982;2022-11-04T06:18:35;9.50;99.90
40077;DHT22;25777;47.824;18.982;2022-11-04T06:21:09;9.50;99.90
40077;DHT22;25777;47.824;18.982;2022-11-04T06:23:36;9.50;99.90
40077;DHT22;25777;47.824;18.982;2022-11-04T06:26:02;9.50;99.90
40077;DHT22;25777;47.824;18.982;2022-11-04T06:28:28;9.50;99.90
40077;DHT22;25777;47.824;18.982;2022-11-04T06:30:57;9.50;99.90
40077;DHT22;25777;47.824;18.982;2022-11-04T06:33:23;9.50;99.90
40077;DHT22;25777;47.824;18.982;2022-11-04T06:35:49;9.40;99.90
40077;DHT22;25777;47.824;18.982;2022-11-04T06:38:15;9.50;99.90
40077;DHT22;25777;47.824;18.982;2022-11-04T06:40:42;9.50;99.90
40077;DHT22;25777;47.824;18.982;2022-11-04T06:43:08;9.50;99.90
40077;DHT22;25777;47.824;18.982;2022-11-04T06:45:34;9.50;99.90
40077;DHT22;25777;47.824;18.982;2022-11-04T06:48:00;9.50;99.90
40077;DHT22;25777;47.824;18.982;2022-11-04T06:50:26;9.50;99.90
40077;DHT22;25777;47.824;18.982;2022-11-04T06:52:52;9.50;99.90
40077;DHT22;25777;47.824;18.982;2022-11-04T06:55:18;9.50;99.90
40077;DHT22;25777;47.824;18.982;2022-11-04T06:57:45;9.50;99.90
40077;DHT22;25777;47.824;18.982;2022-11-04T07:00:12;9.60;99.90
40077;DHT22;25777;47.824;18.982;2022-11-04T07:02:38;9.60;99.90
40077;DHT22;25777;47.824;18.982;2022-11-04T07:05:04;9.60;99.90
40077;DHT22;25777;47.824;18.982;2022-11-04T07:07:30;9.50;99.90
40077;DHT22;25777;47.824;18.982;2022-11-04T07:09:56;9.50;99.90
40077;DHT22;25777;47.824;18.982;2022-11-04T07:12:22;9.50;99.90
40077;DHT22;25777;47.824;18.982;2022-11-04T07:14:50;9.50;99.90
40077;DHT22;25777;47.824;18.982;2022-11-04T07:17:16;9.50;99.90
40077;DHT22;25777;47.824;18.982;2022-11-04T07:19:42;9.50;99.90
40077;DHT22;25777;47.824;18.982;2022-11-04T07:22:08;9.50;99.90
40077;DHT22;25777;47.824;18.982;2022-11-04T07:24:34;9.40;99.90
40077;DHT22;25777;47.824;18.982;2022-11-04T07:27:00;9.50;99.90
40077;DHT22;25777;47.824;18.982;2022-11-04T07:29:26;9.40;99.90
40077;DHT22;25777;47.824;18.982;2022-11-04T07:31:53;9.40;99.90
40077;DHT22;25777;47.824;18.982;2022-11-04T07:34:19;9.50;99.90
40077;DHT22;25777;47.824;18.982;2022-11-04T07:36:45;9.50;99.90
40077;DHT22;25777;47.824;18.982;2022-11-04T07:39:11;9.50;99.90
40077;DHT22;25777;47.824;18.982;2022-11-04T07:41:37;9.50;99.90
40077;DHT22;25777;47.824;18.982;2022-11-04T07:44:03;9.50;99.90
40077;DHT22;25777;47.824;18.982;2022-11-04T07:46:31;9.50;99.90
40077;DHT22;25777;47.824;18.982;2022-11-04T07:48:58;9.50;99.90
40077;DHT22;25777;47.824;18.982;2022-11-04T07:51:24;9.60;99.90
40077;DHT22;25777;47.824;18.982;2022-11-04T07:53:51;9.50;99.90
40077;DHT22;25777;47.824;18.982;2022-11-04T07:56:17;9.50;99.90
40077;DHT22;25777;47.824;18.982;2022-11-04T07:58:44;9.60;99.90
40077;DHT22;25777;47.824;18.982;2022-11-04T08:01:15;9.60;99.90
40077;DHT22;25777;47.824;18.982;2022-11-04T08:03:41;9.60;99.90
40077;DHT22;25777;47.824;18.982;2022-11-04T08:06:09;9.60;99.90
40077;DHT22;25777;47.824;18.982;2022-11-04T08:08:36;9.50;99.90
40077;DHT22;25777;47.824;18.982;2022-11-04T08:11:08;9.60;99.90
40077;DHT22;25777;47.824;18.982;2022-11-04T08:13:35;9.50;99.90
40077;DHT22;25777;47.824;18.982;2022-11-04T08:16:04;9.60;99.90
40077;DHT22;25777;47.824;18.982;2022-11-04T08:18:32;9.50;99.90
40077;DHT22;25777;47.824;18.982;2022-11-04T08:20:59;9.60;99.90
40077;DHT22;25777;47.824;18.982;2022-11-04T08:23:27;9.60;99.90
40077;DHT22;25777;47.824;18.982;2022-11-04T08:25:53;9.50;99.90
40077;DHT22;25777;47.824;18.982;2022-11-04T08:28:19;9.50;99.90
40077;DHT22;25777;47.824;18.982;2022-11-04T08:30:57;9.50;99.90
40077;DHT22;25777;47.824;18.982;2022-11-04T08:33:25;9.50;99.90
40077;DHT22;25777;47.824;18.982;2022-11-04T08:35:52;9.50;99.90
40077;DHT22;25777;47.824;18.982;2022-11-04T08:38:18;9.50;99.90
40077;DHT22;25777;47.824;18.982;2022-11-04T08:40:44;9.50;99.90
40077;DHT22;25777;47.824;18.982;2022-11-04T08:43:10;9.50;99.90
40077;DHT22;25777;47.824;18.982;2022-11-04T08:45:44;9.50;99.90
40077;DHT22;25777;47.824;18.982;2022-11-04T08:48:14;9.50;99.90
40077;DHT22;25777;47.824;18.982;2022-11-04T08:50:41;9.50;99.90
40077;DHT22;25777;47.824;18.982;2022-11-04T08:53:08;9.50;99.90
40077;DHT22;25777;47.824;18.982;2022-11-04T08:55:35;9.50;99.90
40077;DHT22;25777;47.824;18.982;2022-11-04T08:58:01;9.50;99.90
40077;DHT22;25777;47.824;18.982;2022-11-04T09:00:27;9.50;99.90
40077;DHT22;25777;47.824;18.982;2022-11-04T09:02:53;9.60;99.90
40077;DHT22;25777;47.824;18.982;2022-11-04T09:05:20;9.60;99.90
40077;DHT22;25777;47.824;18.982;2022-11-04T09:07:46;9.60;99.90
40077;DHT22;25777;47.824;18.982;2022-11-04T09:10:12;9.60;99.90
40077;DHT22;25777;47.824;18.982;2022-11-04T09:12:41;9.60;99.90
40077;DHT22;25777;47.824;18.982;2022-11-04T09:15:07;9.60;99.90
40077;DHT22;25777;47.824;18.982;2022-11-04T09:17:33;9.60;99.90
40077;DHT22;25777;47.824;18.982;2022-11-04T09:19:59;9.50;99.90
40077;DHT22;25777;47.824;18.982;2022-11-04T09:22:25;9.60;99.90
40077;DHT22;25777;47.824;18.982;2022-11-04T09:24:51;9.60;99.90
40077;DHT22;25777;47.824;18.982;2022-11-04T09:27:17;9.60;99.90
40077;DHT22;25777;47.824;18.982;2022-11-04T09:29:43;9.70;99.90
40077;DHT22;25777;47.824;18.982;2022-11-04T09:32:09;9.70;99.90
40077;DHT22;25777;47.824;18.982;2022-11-04T09:34:34;9.70;99.90
40077;DHT22;25777;47.824;18.982;2022-11-04T09:37:00;9.70;99.90
40077;DHT22;25777;47.824;18.982;2022-11-04T09:39:26;9.70;99.90
40077;DHT22;25777;47.824;18.982;2022-11-04T09:47:21;9.70;99.90
40077;DHT22;25777;47.824;18.982;2022-11-04T09:49:51;9.70;99.90
40077;DHT22;25777;47.824;18.982;2022-11-04T09:52:30;9.70;99.90
40077;DHT22;25777;47.824;18.982;2022-11-04T09:55:49;9.70;99.90
40077;DHT22;25777;47.824;18.982;2022-11-04T09:57:56;9.60;99.90
40077;DHT22;25777;47.824;18.982;2022-11-04T10:00:24;9.60;99.90
40077;DHT22;25777;47.824;18.982;2022-11-04T10:03:38;9.60;99.90
40077;DHT22;25777;47.824;18.982;2022-11-04T10:11:50;9.50;99.90
40077;DHT22;25777;47.824;18.982;2022-11-04T10:19:09;9.50;99.90
40077;DHT22;25777;47.824;18.982;2022-11-04T10:21:48;9.50;99.90
40077;DHT22;25777;47.824;18.982;2022-11-04T10:24:40;9.50;99.90
40077;DHT22;25777;47.824;18.982;2022-11-04T10:27:16;9.60;99.90
40077;DHT22;25777;47.824;18.982;2022-11-04T10:29:51;9.50;99.90
40077;DHT22;25777;47.824;18.982;2022-11-04T10:32:26;9.50;99.90
40077;DHT22;25777;47.824;18.982;2022-11-04T10:35:05;9.50;99.90
40077;DHT22;25777;47.824;18.982;2022-11-04T10:37:38;9.50;99.90
40077;DHT22;25777;47.824;18.982;2022-11-04T10:40:22;9.50;99.90
40077;DHT22;25777;47.824;18.982;2022-11-04T10:42:50;9.40;99.90
40077;DHT22;25777;47.824;18.982;2022-11-04T10:45:20;9.50;99.90
40077;DHT22;25777;47.824;18.982;2022-11-04T10:48:11;9.50;99.90
40077;DHT22;25777;47.824;18.982;2022-11-04T10:50:52;9.40;99.90
40077;DHT22;25777;47.824;18.982;2022-11-04T10:53:22;9.40;99.90
40077;DHT22;25777;47.824;18.982;2022-11-04T10:56:10;9.50;99.90
40077;DHT22;25777;47.824;18.982;2022-11-04T10:58:46;9.40;99.90
40077;DHT22;25777;47.824;18.982;2022-11-04T11:01:35;9.40;99.90
40077;DHT22;25777;47.824;18.982;2022-11-04T11:04:05;9.40;99.90
40077;DHT22;25777;47.824;18.982;2022-11-04T11:06:35;9.30;99.90
40077;DHT22;25777;47.824;18.982;2022-11-04T11:09:20;9.30;99.90
40077;DHT22;25777;47.824;18.982;2022-11-04T11:11:51;9.30;99.90
40077;DHT22;25777;47.824;18.982;2022-11-04T11:14:38;9.30;99.90
40077;DHT22;25777;47.824;18.982;2022-11-04T11:17:21;9.30;99.90
40077;DHT22;25777;47.824;18.982;2022-11-04T11:19:54;9.40;99.90
40077;DHT22;25777;47.824;18.982;2022-11-04T11:22:38;9.40;99.90
40077;DHT22;25777;47.824;18.982;2022-11-04T11:25:28;9.40;99.90
40077;DHT22;25777;47.824;18.982;2022-11-04T11:28:06;9.40;99.90
40077;DHT22;25777;47.824;18.982;2022-11-04T11:33:21;9.50;99.90
40077;DHT22;25777;47.824;18.982;2022-11-04T11:35:54;9.50;99.90
40077;DHT22;25777;47.824;18.982;2022-11-04T11:38:24;9.50;99.90
40077;DHT22;25777;47.824;18.982;2022-11-04T11:41:02;9.50;99.90
40077;DHT22;25777;47.824;18.982;2022-11-04T11:43:31;9.50;99.90
40077;DHT22;25777;47.824;18.982;2022-11-04T11:45:58;9.40;99.90
40077;DHT22;25777;47.824;18.982;2022-11-04T11:48:38;9.50;99.90
40077;DHT22;25777;47.824;18.982;2022-11-04T11:51:05;9.50;99.90
40077;DHT22;25777;47.824;18.982;2022-11-04T11:53:32;9.50;99.90
40077;DHT22;25777;47.824;18.982;2022-11-04T11:59:00;9.50;99.90
40077;DHT22;25777;47.824;18.982;2022-11-04T12:04:27;9.50;99.90
40077;DHT22;25777;47.824;18.982;2022-11-04T12:12:28;9.50;99.90
40077;DHT22;25777;47.824;18.982;2022-11-04T12:23:35;9.60;99.90
40077;DHT22;25777;47.824;18.982;2022-11-04T12:29:01;9.60;99.90
40077;DHT22;25777;47.824;18.982;2022-11-04T12:31:50;9.60;99.90
40077;DHT22;25777;47.824;18.982;2022-11-04T12:40:18;9.70;99.90
40077;DHT22;25777;47.824;18.982;2022-11-04T12:48:59;9.70;99.90
40077;DHT22;25777;47.824;18.982;2022-11-04T12:51:53;9.70;99.90
40077;DHT22;25777;47.824;18.982;2022-11-04T12:57:31;9.70;99.90
40077;DHT22;25777;47.824;18.982;2022-11-04T13:02:51;9.70;99.90
40077;DHT22;25777;47.824;18.982;2022-11-04T13:08:30;9.70;99.90
40077;DHT22;25777;47.824;18.982;2022-11-04T13:11:17;9.70;99.90
40077;DHT22;25777;47.824;18.982;2022-11-04T13:13:57;9.70;99.90
40077;DHT22;25777;47.824;18.982;2022-11-04T13:16:27;9.80;99.90
40077;DHT22;25777;47.824;18.982;2022-11-04T13:18:56;9.80;99.90
40077;DHT22;25777;47.824;18.982;2022-11-04T13:21:30;9.80;99.90
40077;DHT22;25777;47.824;18.982;2022-11-04T13:24:06;9.80;99.90
40077;DHT22;25777;47.824;18.982;2022-11-04T13:26:38;9.80;99.90
40077;DHT22;25777;47.824;18.982;2022-11-04T13:29:14;9.80;99.90
40077;DHT22;25777;47.824;18.982;2022-11-04T13:34:33;9.80;99.90
40077;DHT22;25777;47.824;18.982;2022-11-04T13:39:48;9.90;99.90
40077;DHT22;25777;47.824;18.982;2022-11-04T13:42:35;9.90;99.90
40077;DHT22;25777;47.824;18.982;2022-11-04T13:45:16;9.90;99.90
40077;DHT22;25777;47.824;18.982;2022-11-04T13:47:50;9.90;99.90
40077;DHT22;25777;47.824;18.982;2022-11-04T13:50:38;10.00;99.90
40077;DHT22;25777;47.824;18.982;2022-11-04T13:53:08;9.90;99.90
40077;DHT22;25777;47.824;18.982;2022-11-04T13:55:35;10.00;99.90
40077;DHT22;25777;47.824;18.982;2022-11-04T13:58:04;10.00;99.90
40077;DHT22;25777;47.824;18.982;2022-11-04T14:00:32;9.90;99.90
40077;DHT22;25777;47.824;18.982;2022-11-04T14:08:26;10.00;99.90
40077;DHT22;25777;47.824;18.982;2022-11-04T14:16:01;9.90;99.90
40077;DHT22;25777;47.824;18.982;2022-11-04T14:18:37;9.90;99.90
40077;DHT22;25777;47.824;18.982;2022-11-04T14:21:10;9.90;99.90
40077;DHT22;25777;47.824;18.982;2022-11-04T14:23:45;10.00;99.90
40077;DHT22;25777;47.824;18.982;2022-11-04T14:26:17;9.90;99.90
40077;DHT22;25777;47.824;18.982;2022-11-04T14:28:49;9.90;99.90
40077;DHT22;25777;47.824;18.982;2022-11-04T14:31:39;9.90;99.90
40077;DHT22;25777;47.824;18.982;2022-11-04T14:34:06;9.90;99.90
40077;DHT22;25777;47.824;18.982;2022-11-04T14:36:39;9.90;99.90
40077;DHT22;25777;47.824;18.982;2022-11-04T14:44:44;10.00;99.90
40077;DHT22;25777;47.824;18.982;2022-11-04T14:47:16;10.00;99.90
40077;DHT22;25777;47.824;18.982;2022-11-04T14:49:49;10.00;99.90
40077;DHT22;25777;47.824;18.982;2022-11-04T14:54:45;10.00;99.90
40077;DHT22;25777;47.824;18.982;2022-11-04T14:57:18;10.00;99.90
40077;DHT22;25777;47.824;18.982;2022-11-04T14:59:45;10.00;99.90
40077;DHT22;25777;47.824;18.982;2022-11-04T15:02:18;10.00;99.90
40077;DHT22;25777;47.824;18.982;2022-11-04T15:04:49;10.00;99.90
40077;DHT22;25777;47.824;18.982;2022-11-04T15:07:35;10.00;99.90
40077;DHT22;25777;47.824;18.982;2022-11-04T15:10:22;10.00;99.90
40077;DHT22;25777;47.824;18.982;2022-11-04T15:12:51;10.00;99.90
40077;DHT22;25777;47.824;18.982;2022-11-04T15:20:36;10.00;99.90
40077;DHT22;25777;47.824;18.982;2022-11-04T15:23:06;10.00;99.90
40077;DHT22;25777;47.824;18.982;2022-11-04T15:25:35;10.00;99.90
40077;DHT22;25777;47.824;18.982;2022-11-04T15:28:01;10.00;99.90
40077;DHT22;25777;47.824;18.982;2022-11-04T15:30:29;10.00;99.90
40077;DHT22;25777;47.824;18.982;2022-11-04T15:33:01;10.10;99.90
40077;DHT22;25777;47.824;18.982;2022-11-04T15:35:29;10.10;99.90
40077;DHT22;25777;47.824;18.982;2022-11-04T15:37:59;10.10;99.90
40077;DHT22;25777;47.824;18.982;2022-11-04T15:40:27;10.10;99.90
40077;DHT22;25777;47.824;18.982;2022-11-04T15:42:53;10.00;99.90
40077;DHT22;25777;47.824;18.982;2022-11-04T15:45:31;10.00;99.90
40077;DHT22;25777;47.824;18.982;2022-11-04T15:48:32;10.00;99.90
40077;DHT22;25777;47.824;18.982;2022-11-04T15:51:20;10.00;99.90
40077;DHT22;25777;47.824;18.982;2022-11-04T15:54:15;10.00;99.90
40077;DHT22;25777;47.824;18.982;2022-11-04T15:56:47;10.00;99.90
40077;DHT22;25777;47.824;18.982;2022-11-04T15:59:19;10.00;99.90
40077;DHT22;25777;47.824;18.982;2022-11-04T16:01:49;10.00;99.90
40077;DHT22;25777;47.824;18.982;2022-11-04T16:04:17;10.00;99.90
40077;DHT22;25777;47.824;18.982;2022-11-04T16:06:45;10.00;99.90
40077;DHT22;25777;47.824;18.982;2022-11-04T16:09:26;10.00;99.90
40077;DHT22;25777;47.824;18.982;2022-11-04T16:14:47;10.00;99.90
40077;DHT22;25777;47.824;18.982;2022-11-04T16:17:13;10.00;99.90
40077;DHT22;25777;47.824;18.982;2022-11-04T16:19:47;10.00;99.90
40077;DHT22;25777;47.824;18.982;2022-11-04T16:22:19;10.00;99.90
40077;DHT22;25777;47.824;18.982;2022-11-04T16:24:47;10.10;99.90
40077;DHT22;25777;47.824;18.982;2022-11-04T16:27:20;10.10;99.90
40077;DHT22;25777;47.824;18.982;2022-11-04T16:30:06;10.10;99.90
40077;DHT22;25777;47.824;18.982;2022-11-04T16:32:43;10.10;99.90
40077;DHT22;25777;47.824;18.982;2022-11-04T16:35:24;10.10;99.90
40077;DHT22;25777;47.824;18.982;2022-11-04T16:37:52;10.10;99.90
40077;DHT22;25777;47.824;18.982;2022-11-04T16:40:19;10.10;99.90
40077;DHT22;25777;47.824;18.982;2022-11-04T16:42:47;10.10;99.90
40077;DHT22;25777;47.824;18.982;2022-11-04T16:45:33;10.10;99.90
40077;DHT22;25777;47.824;18.982;2022-11-04T16:48:01;10.10;99.90
40077;DHT22;25777;47.824;18.982;2022-11-04T16:50:27;10.10;99.90
40077;DHT22;25777;47.824;18.982;2022-11-04T16:52:54;10.10;99.90
40077;DHT22;25777;47.824;18.982;2022-11-04T16:55:20;10.10;99.90
40077;DHT22;25777;47.824;18.982;2022-11-04T16:57:53;10.20;99.90
40077;DHT22;25777;47.824;18.982;2022-11-04T17:00:22;10.20;99.90
40077;DHT22;25777;47.824;18.982;2022-11-04T17:02:48;10.20;99.90
40077;DHT22;25777;47.824;18.982;2022-11-04T17:05:15;10.20;99.90
40077;DHT22;25777;47.824;18.982;2022-11-04T17:07:42;10.20;99.90
40077;DHT22;25777;47.824;18.982;2022-11-04T17:10:19;10.20;99.90
40077;DHT22;25777;47.824;18.982;2022-11-04T17:12:45;10.20;99.90
40077;DHT22;25777;47.824;18.982;2022-11-04T17:15:13;10.20;99.90
40077;DHT22;25777;47.824;18.982;2022-11-04T17:17:40;10.20;99.90
40077;DHT22;25777;47.824;18.982;2022-11-04T17:20:07;10.20;99.90
40077;DHT22;25777;47.824;18.982;2022-11-04T17:22:36;10.20;99.90
40077;DHT22;25777;47.824;18.982;2022-11-04T17:25:03;10.20;99.90
40077;DHT22;25777;47.824;18.982;2022-11-04T17:27:37;10.20;99.90
40077;DHT22;25777;47.824;18.982;2022-11-04T17:30:07;10.20;99.90
40077;DHT22;25777;47.824;18.982;2022-11-04T17:32:34;10.20;99.90
40077;DHT22;25777;47.824;18.982;2022-11-04T17:35:01;10.20;99.90
40077;DHT22;25777;47.824;18.982;2022-11-04T17:37:28;10.20;99.90
40077;DHT22;25777;47.824;18.982;2022-11-04T17:39:54;10.20;99.90
40077;DHT22;25777;47.824;18.982;2022-11-04T17:42:20;10.10;99.90
40077;DHT22;25777;47.824;18.982;2022-11-04T17:45:06;10.10;99.90
40077;DHT22;25777;47.824;18.982;2022-11-04T17:47:37;10.10;99.90
40077;DHT22;25777;47.824;18.982;2022-11-04T17:50:04;10.10;99.90
40077;DHT22;25777;47.824;18.982;2022-11-04T17:52:34;10.20;99.90
40077;DHT22;25777;47.824;18.982;2022-11-04T17:55:00;10.30;99.90
40077;DHT22;25777;47.824;18.982;2022-11-04T17:57:27;10.30;99.90
40077;DHT22;25777;47.824;18.982;2022-11-04T17:59:55;10.30;99.90
40077;DHT22;25777;47.824;18.982;2022-11-04T18:02:21;10.40;99.90
40077;DHT22;25777;47.824;18.982;2022-11-04T18:04:50;10.40;99.90
40077;DHT22;25777;47.824;18.982;2022-11-04T18:07:17;10.40;99.90